Time;durP1;ratioP1;P1;durP2;ratioP2;P2;SDS_P1;SDS_P2;PMS_P1;PMS_P2;Temp;Humidity;BMP_temperature;BMP_pressure;BME280_temperature;BME280_humidity;BME280_pressure;Samples;Min_cycle;Max_cycle;Signal;HPM_P1;HPM_P2
2023/06/18 00:01:52;;;;;;;13.50;11.93;;;;;;;16.65;74.25;100638.63;5009807;28;20226;-84
2023/06/18 00:04:19;;;;;;;13.07;11.80;;;;;;;16.62;75.11;100636.16;5009250;28;20648;-83
2023/06/18 00:06:45;;;;;;;13.30;11.50;;;;;;;16.60;75.90;100640.84;5010270;28;20281;-83
2023/06/18 00:09:12;;;;;;;13.53;12.13;;;;;;;16.60;76.83;100643.53;5008160;28;20205;-83
2023/06/18 00:11:41;;;;;;;14.40;12.90;;;;;;;16.58;76.82;100645.50;5005791;28;20203;-83
2023/06/18 00:14:08;;;;;;;17.07;13.27;;;;;;;16.56;77.46;100642.09;5001878;28;20667;-84
2023/06/18 00:16:35;;;;;;;13.27;11.67;;;;;;;16.55;77.80;100637.69;5001963;28;20312;-84
2023/06/18 00:19:01;;;;;;;13.30;12.00;;;;;;;16.56;78.31;100644.78;5010239;28;20200;-83
2023/06/18 00:21:28;;;;;;;15.17;12.90;;;;;;;16.58;78.17;100633.88;5011595;28;20319;-84
2023/06/18 00:23:54;;;;;;;14.13;12.73;;;;;;;16.57;77.93;100643.78;5000205;28;20217;-83
2023/06/18 00:26:22;;;;;;;15.03;13.40;;;;;;;16.56;77.98;100642.09;5009241;28;20207;-84
2023/06/18 00:28:48;;;;;;;16.27;13.60;;;;;;;16.54;78.01;100645.88;5005680;28;20219;-83
2023/06/18 00:31:16;;;;;;;17.23;12.70;;;;;;;16.50;77.81;100649.81;5001368;28;20218;-83
2023/06/18 00:33:43;;;;;;;15.20;11.80;;;;;;;16.45;78.11;100647.56;5011127;28;20219;-84
2023/06/18 00:36:09;;;;;;;14.53;12.80;;;;;;;16.43;78.20;100660.28;5011495;28;20288;-83
2023/06/18 00:38:37;;;;;;;15.90;13.37;;;;;;;16.39;78.37;100650.78;5007672;28;20225;-84
2023/06/18 00:41:03;;;;;;;16.30;13.67;;;;;;;16.38;79.00;100645.53;5005795;28;20230;-83
2023/06/18 00:43:30;;;;;;;15.10;13.47;;;;;;;16.37;79.08;100641.16;4996185;28;20393;-83
2023/06/18 00:45:59;;;;;;;15.83;13.87;;;;;;;16.35;79.39;100638.59;5004600;28;20227;-83
2023/06/18 00:48:27;;;;;;;16.77;14.10;;;;;;;16.35;79.99;100641.28;5010733;28;20306;-83
2023/06/18 00:50:54;;;;;;;15.57;13.80;;;;;;;16.36;80.13;100642.97;5003032;28;20206;-82
2023/06/18 00:53:21;;;;;;;15.87;14.20;;;;;;;16.37;80.15;100651.91;4994452;28;20212;-82
2023/06/18 00:55:48;;;;;;;17.57;14.83;;;;;;;16.35;80.55;100652.03;5008728;28;20695;-84
2023/06/18 00:58:15;;;;;;;17.03;14.67;;;;;;;16.35;80.69;100648.50;5008935;28;20771;-84
2023/06/18 01:00:43;;;;;;;17.57;13.67;;;;;;;16.35;80.90;100652.03;5004779;28;20218;-83
2023/06/18 01:03:16;;;;;;;14.73;13.23;;;;;;;16.34;80.73;100644.94;4998641;28;20227;-83
2023/06/18 01:05:45;;;;;;;14.20;12.80;;;;;;;16.30;80.70;100640.84;5004674;28;20237;-82
2023/06/18 01:08:13;;;;;;;15.33;12.93;;;;;;;16.27;80.60;100641.97;5003583;28;20233;-84
2023/06/18 01:10:40;;;;;;;15.43;13.47;;;;;;;16.24;79.39;100644.06;5009586;28;20209;-83
2023/06/18 01:13:09;;;;;;;16.13;13.10;;;;;;;16.17;79.21;100642.88;5008611;28;21510;-83
2023/06/18 01:15:35;;;;;;;14.23;12.73;;;;;;;16.13;79.52;100641.44;5007531;28;20210;-83
2023/06/18 01:18:06;;;;;;;14.47;12.93;;;;;;;16.11;80.09;100628.16;5007525;28;20249;-83
2023/06/18 01:20:40;;;;;;;15.23;13.03;;;;;;;16.12;80.56;100634.38;5004669;28;20296;-83
2023/06/18 01:23:15;;;;;;;15.07;13.50;;;;;;;16.13;80.96;100636.91;5010583;28;20315;-83
2023/06/18 01:25:43;;;;;;;15.77;14.03;;;;;;;16.16;80.94;100633.97;5002244;28;20216;-83
2023/06/18 01:28:10;;;;;;;14.27;11.53;;;;;;;16.13;79.34;100634.22;4998734;28;20231;-82
2023/06/18 01:30:37;;;;;;;12.90;11.60;;;;;;;16.05;78.34;100644.81;5007769;28;20247;-83
2023/06/18 01:33:04;;;;;;;19.13;12.47;;;;;;;15.93;78.16;100644.03;5001869;28;20246;-82
2023/06/18 01:35:30;;;;;;;13.87;11.73;;;;;;;15.84;78.27;100642.13;5005775;28;20237;-83
2023/06/18 01:38:20;;;;;;;13.13;11.57;;;;;;;15.75;77.88;100645.59;5003712;28;20233;-82
2023/06/18 01:40:50;;;;;;;18.63;11.53;;;;;;;15.68;78.14;100652.47;5002870;28;20215;-83
2023/06/18 01:43:24;;;;;;;18.87;12.13;;;;;;;15.63;78.97;100649.31;5008542;28;20237;-83
2023/06/18 01:45:57;;;;;;;13.90;12.20;;;;;;;15.60;79.38;100638.81;5000934;28;20318;-83
2023/06/18 01:48:25;;;;;;;13.30;11.90;;;;;;;15.58;79.42;100656.91;5006754;28;20755;-82
2023/06/18 01:50:53;;;;;;;17.87;12.33;;;;;;;15.52;78.74;100652.03;5012142;28;20213;-82
2023/06/18 01:53:22;;;;;;;17.07;12.23;;;;;;;15.44;78.76;100651.78;5009104;28;20212;-82
2023/06/18 01:55:52;;;;;;;14.43;12.43;;;;;;;15.37;79.10;100653.31;5006983;28;20852;-83
2023/06/18 01:58:21;;;;;;;15.60;12.80;;;;;;;15.29;80.10;100657.47;5000895;28;20232;-83
2023/06/18 02:00:51;;;;;;;15.53;13.43;;;;;;;15.26;80.96;100660.41;5007326;28;20215;-82
2023/06/18 02:03:17;;;;;;;14.67;13.00;;;;;;;15.23;81.65;100657.97;5003044;28;20242;-83
2023/06/18 02:05:44;;;;;;;14.57;12.33;;;;;;;15.22;81.83;100655.44;5011728;28;20222;-82
2023/06/18 02:08:10;;;;;;;17.77;13.13;;;;;;;15.21;82.84;100657.25;5001729;28;20236;-83
2023/06/18 02:10:38;;;;;;;17.33;12.87;;;;;;;15.22;83.10;100658.97;5005106;28;20201;-83
2023/06/18 02:13:05;;;;;;;18.43;13.30;;;;;;;15.21;83.29;100657.25;4998159;28;20945;-85
2023/06/18 02:15:31;;;;;;;14.73;13.10;;;;;;;15.22;83.29;100660.81;5003552;28;20214;-84
2023/06/18 02:17:58;;;;;;;16.17;13.13;;;;;;;15.20;83.45;100658.25;5009053;28;20238;-83
2023/06/18 02:20:25;;;;;;;17.10;13.00;;;;;;;15.19;83.43;100651.16;5000099;28;20205;-82
2023/06/18 02:22:52;;;;;;;16.83;12.40;;;;;;;15.14;82.81;100666.78;5000685;28;20228;-83
2023/06/18 02:25:19;;;;;;;13.83;12.43;;;;;;;15.11;83.29;100664.34;5003195;28;20209;-83
2023/06/18 02:27:54;;;;;;;19.00;13.27;;;;;;;15.12;84.09;100671.41;5006839;28;20813;-83
2023/06/18 02:30:20;;;;;;;14.93;13.37;;;;;;;15.12;84.02;100671.41;4996110;28;20198;-82
2023/06/18 02:32:48;;;;;;;17.50;12.57;;;;;;;15.10;83.66;100667.16;4997348;28;20222;-82
2023/06/18 02:35:15;;;;;;;15.27;12.27;;;;;;;15.05;83.97;100661.34;5003979;28;20294;-82
2023/06/18 02:37:42;;;;;;;15.77;12.90;;;;;;;14.97;83.50;100661.94;5002919;28;20842;-83
2023/06/18 02:40:11;;;;;;;17.47;12.97;;;;;;;14.92;83.46;100664.16;5009779;28;20212;-83
2023/06/18 02:42:46;;;;;;;16.33;13.33;;;;;;;14.85;82.94;100665.63;4997946;28;20233;-83
2023/06/18 02:45:16;;;;;;;14.23;11.87;;;;;;;14.78;83.42;100667.09;5012443;28;20239;-82
2023/06/18 02:47:42;;;;;;;17.33;12.70;;;;;;;14.72;83.15;100654.16;5008701;28;20230;-83
2023/06/18 02:50:09;;;;;;;15.50;12.57;;;;;;;14.64;83.74;100665.53;5010039;28;20670;-82
2023/06/18 02:52:36;;;;;;;14.93;13.17;;;;;;;14.57;84.27;100665.16;5012805;28;20202;-83
2023/06/18 02:55:02;;;;;;;16.83;14.53;;;;;;;14.53;84.70;100668.19;5009028;28;20207;-83
2023/06/18 02:57:29;;;;;;;14.67;13.17;;;;;;;14.48;85.48;100679.28;5007199;28;20220;-82
2023/06/18 02:59:55;;;;;;;17.97;14.80;;;;;;;14.45;86.20;100674.19;5004287;28;20568;-83
2023/06/18 03:02:23;;;;;;;15.03;12.80;;;;;;;14.44;86.76;100677.81;5008754;28;20876;-82
2023/06/18 03:04:50;;;;;;;17.87;13.30;;;;;;;14.44;86.95;100667.09;5007011;28;20214;-82
2023/06/18 03:07:17;;;;;;;17.13;13.70;;;;;;;14.46;87.37;100680.38;5012665;28;21702;-83
2023/06/18 03:09:43;;;;;;;15.70;13.67;;;;;;;14.48;87.77;100673.09;5009749;28;20215;-82
2023/06/18 03:12:11;;;;;;;18.27;14.33;;;;;;;14.49;87.75;100675.66;5008011;28;20208;-82
2023/06/18 03:14:37;;;;;;;16.67;13.63;;;;;;;14.52;87.53;100677.19;5007403;28;20704;-82
2023/06/18 03:17:04;;;;;;;15.93;14.13;;;;;;;14.53;87.89;100666.38;4998812;28;20592;-83
2023/06/18 03:19:32;;;;;;;14.77;13.27;;;;;;;14.56;87.56;100673.31;4997493;28;20222;-82
2023/06/18 03:21:58;;;;;;;15.53;13.63;;;;;;;14.57;87.71;100666.97;5009114;28;20210;-82
2023/06/18 03:24:26;;;;;;;16.63;14.30;;;;;;;14.60;88.01;100658.69;5006175;28;20246;-82
2023/06/18 03:26:53;;;;;;;16.13;14.43;;;;;;;14.62;87.89;100658.59;5007781;28;20321;-82
2023/06/18 03:29:20;;;;;;;16.33;14.20;;;;;;;14.64;87.87;100659.31;5007520;28;20218;-83
2023/06/18 03:31:46;;;;;;;20.17;15.10;;;;;;;14.66;88.41;100658.22;5010432;28;20261;-82
2023/06/18 03:34:12;;;;;;;15.33;13.40;;;;;;;14.70;88.25;100656.97;5006066;28;20203;-82
2023/06/18 03:36:41;;;;;;;14.90;11.70;;;;;;;14.70;87.39;100658.81;5000982;28;20230;-83
2023/06/18 03:39:08;;;;;;;17.93;12.90;;;;;;;14.57;85.96;100658.94;5002140;28;20207;-82
2023/06/18 03:41:35;;;;;;;13.87;11.23;;;;;;;14.46;85.24;100657.13;5006989;28;20313;-83
2023/06/18 03:44:03;;;;;;;15.27;11.93;;;;;;;14.36;85.22;100656.09;5004929;28;20238;-82
2023/06/18 03:46:29;;;;;;;14.43;12.33;;;;;;;14.28;85.99;100655.00;5007469;28;20214;-83
2023/06/18 03:48:56;;;;;;;18.80;12.47;;;;;;;14.23;86.46;100655.38;4997378;28;20693;-83
2023/06/18 03:51:23;;;;;;;16.17;12.63;;;;;;;14.20;86.92;100656.47;5003175;28;20218;-82
2023/06/18 03:53:50;;;;;;;14.60;12.17;;;;;;;14.21;87.88;100652.81;5006275;28;20222;-82
2023/06/18 03:56:17;;;;;;;14.40;12.27;;;;;;;14.22;88.50;100659.88;5011100;28;22169;-83
2023/06/18 03:58:44;;;;;;;16.27;12.97;;;;;;;14.26;88.83;100660.50;5003762;28;20261;-83
2023/06/18 04:01:11;;;;;;;13.90;12.43;;;;;;;14.27;88.59;100662.19;5002762;28;20235;-83
2023/06/18 04:03:37;;;;;;;16.30;13.43;;;;;;;14.27;89.17;100661.34;5008812;28;20219;-82
2023/06/18 04:06:04;;;;;;;16.80;14.53;;;;;;;14.27;89.71;100672.06;5004370;28;20203;-83
2023/06/18 04:08:31;;;;;;;15.37;13.63;;;;;;;14.27;90.00;100669.38;5010357;28;20306;-84
2023/06/18 04:10:59;;;;;;;14.87;13.37;;;;;;;14.29;90.84;100679.00;5002994;28;20218;-82
2023/06/18 04:13:26;;;;;;;15.43;13.83;;;;;;;14.32;91.36;100668.06;4998189;28;20196;-82
2023/06/18 04:15:52;;;;;;;17.47;14.83;;;;;;;14.36;92.11;100677.53;5005819;28;20211;-83
2023/06/18 04:18:19;;;;;;;17.47;14.20;;;;;;;14.37;91.88;100681.91;5005934;28;20242;-83
2023/06/18 04:20:45;;;;;;;17.47;13.97;;;;;;;14.39;91.55;100679.13;4998340;28;20211;-81
2023/06/18 04:23:13;;;;;;;18.67;14.07;;;;;;;14.40;91.82;100673.69;5006273;28;20231;-82
2023/06/18 04:25:40;;;;;;;16.43;14.33;;;;;;;14.44;92.51;100674.28;5005300;28;20211;-82
2023/06/18 04:28:08;;;;;;;15.77;13.77;;;;;;;14.49;92.85;100681.00;5004718;28;20227;-83
2023/06/18 04:30:34;;;;;;;15.73;14.07;;;;;;;14.53;92.56;100684.28;5004298;28;20756;-83
2023/06/18 04:33:01;;;;;;;17.97;13.77;;;;;;;14.58;93.18;100688.31;5006669;28;20294;-83
2023/06/18 04:35:27;;;;;;;22.57;14.13;;;;;;;14.63;92.85;100689.78;5000122;28;20220;-83
2023/06/18 04:37:53;;;;;;;17.20;14.30;;;;;;;14.66;92.96;100690.38;5001616;28;20230;-82
2023/06/18 04:40:21;;;;;;;17.67;13.60;;;;;;;14.70;93.45;100686.47;5008066;28;20216;-83
2023/06/18 04:42:48;;;;;;;15.53;13.93;;;;;;;14.76;93.82;100690.50;4996426;28;20582;-83
2023/06/18 04:45:16;;;;;;;15.57;13.63;;;;;;;14.79;93.91;100682.19;5004433;28;20204;-83
2023/06/18 04:47:42;;;;;;;16.17;14.27;;;;;;;14.83;93.86;100678.31;5010078;28;20227;-83
2023/06/18 04:50:10;;;;;;;16.97;14.03;;;;;;;14.87;94.62;100685.97;5008401;28;20204;-83
2023/06/18 04:52:36;;;;;;;17.20;13.97;;;;;;;14.94;94.88;100680.97;5010583;28;20293;-83
2023/06/18 04:55:03;;;;;;;20.17;14.67;;;;;;;14.99;94.71;100680.59;5003174;28;20215;-83
2023/06/18 04:57:30;;;;;;;17.03;15.23;;;;;;;15.03;94.75;100685.59;5009038;28;20319;-83
2023/06/18 04:59:56;;;;;;;19.07;15.93;;;;;;;15.10;95.33;100691.28;5003794;28;20207;-83
2023/06/18 05:02:24;;;;;;;17.03;15.23;;;;;;;15.15;95.79;100692.63;5010982;28;20202;-83
2023/06/18 05:04:51;;;;;;;19.00;15.30;;;;;;;15.20;95.76;100690.44;5007791;28;20223;-83
2023/06/18 05:07:17;;;;;;;17.17;15.37;;;;;;;15.26;96.20;100689.06;5004519;28;20224;-82
2023/06/18 05:09:44;;;;;;;18.27;15.33;;;;;;;15.33;96.55;100700.16;5007711;28;20210;-82
2023/06/18 05:12:11;;;;;;;16.50;14.50;;;;;;;15.38;96.39;100687.22;5005818;28;20211;-83
2023/06/18 05:14:37;;;;;;;17.13;15.27;;;;;;;15.42;96.39;100692.19;5011047;28;20210;-83
2023/06/18 05:17:04;;;;;;;16.43;14.73;;;;;;;15.48;96.00;100693.50;5006631;28;20242;-82
2023/06/18 05:19:32;;;;;;;16.70;14.90;;;;;;;15.53;95.75;100689.47;5003709;28;20218;-83
2023/06/18 05:21:58;;;;;;;17.80;14.07;;;;;;;15.61;95.68;100686.16;5003161;28;20211;-83
2023/06/18 05:24:25;;;;;;;16.17;14.20;;;;;;;15.70;95.49;100693.47;5003385;28;20323;-82
2023/06/18 05:26:52;;;;;;;18.33;14.53;;;;;;;15.79;95.11;100687.31;5002056;28;20231;-82
2023/06/18 05:29:19;;;;;;;21.90;15.10;;;;;;;15.87;94.65;100689.34;5002882;28;20609;-82
2023/06/18 05:31:47;;;;;;;15.80;14.20;;;;;;;15.98;94.07;100687.44;4994307;28;20300;-83
2023/06/18 05:34:13;;;;;;;18.50;13.87;;;;;;;16.07;94.07;100688.50;4999490;28;20214;-82
2023/06/18 05:36:41;;;;;;;19.23;14.23;;;;;;;16.21;93.95;100692.69;5002498;28;20232;-84
2023/06/18 05:39:08;;;;;;;15.83;14.23;;;;;;;16.33;93.65;100699.69;5009956;28;20212;-85
2023/06/18 05:41:34;;;;;;;16.00;14.47;;;;;;;16.48;93.29;100692.97;5008126;28;20218;-84
2023/06/18 05:44:01;;;;;;;16.00;14.23;;;;;;;16.62;92.96;100695.31;5017886;28;20249;-85
2023/06/18 05:46:27;;;;;;;16.40;14.60;;;;;;;16.77;91.69;100701.22;5005309;28;20620;-84
2023/06/18 05:48:54;;;;;;;18.70;14.03;;;;;;;16.91;90.83;100697.31;5018374;28;20227;-85
2023/06/18 05:51:20;;;;;;;15.97;13.50;;;;;;;17.08;90.47;100701.16;5012846;28;20220;-85
2023/06/18 05:53:48;;;;;;;15.27;13.33;;;;;;;17.25;89.39;100698.66;5009341;28;20218;-84
2023/06/18 05:56:14;;;;;;;18.03;14.00;;;;;;;17.42;88.65;100691.75;5005140;28;20207;-83
2023/06/18 05:58:41;;;;;;;14.67;13.17;;;;;;;17.60;87.90;100702.66;5006807;28;20310;-82
2023/06/18 06:01:08;;;;;;;14.37;12.90;;;;;;;17.78;86.16;100705.53;4998335;28;20314;-83
2023/06/18 06:03:35;;;;;;;13.43;12.13;;;;;;;17.91;84.56;100704.28;5012138;28;20756;-83
2023/06/18 06:06:02;;;;;;;12.97;11.77;;;;;;;18.08;83.49;100700.00;5012410;28;20241;-83
2023/06/18 06:08:28;;;;;;;13.80;12.37;;;;;;;18.22;81.76;100696.84;5003525;28;20221;-83
2023/06/18 06:10:57;;;;;;;14.17;12.67;;;;;;;18.37;80.35;100711.56;5005149;28;20213;-83
2023/06/18 06:13:23;;;;;;;13.13;12.03;;;;;;;18.52;79.44;100703.00;5006046;28;20201;-83
2023/06/18 06:15:49;;;;;;;13.23;11.90;;;;;;;18.68;78.39;100703.28;5005256;28;20215;-83
2023/06/18 06:18:16;;;;;;;13.17;11.87;;;;;;;18.85;78.54;100705.19;5005548;28;20221;-84
2023/06/18 06:20:42;;;;;;;12.93;11.63;;;;;;;19.05;78.01;100706.78;5005621;28;20217;-83
2023/06/18 06:23:09;;;;;;;14.03;12.63;;;;;;;19.24;76.83;100705.84;4999079;28;20214;-83
2023/06/18 06:25:35;;;;;;;14.07;12.50;;;;;;;19.41;75.73;100704.16;5001358;28;20887;-83
2023/06/18 06:28:04;;;;;;;13.10;11.57;;;;;;;19.60;74.27;100708.59;5010176;28;20298;-84
2023/06/18 06:30:30;;;;;;;12.53;11.27;;;;;;;19.74;72.27;100708.06;5007656;28;20212;-85
2023/06/18 06:32:56;;;;;;;13.90;12.03;;;;;;;19.93;71.43;100704.34;4999853;28;20605;-83
2023/06/18 06:35:24;;;;;;;13.50;12.10;;;;;;;20.10;69.40;100714.28;5004885;28;20733;-83
2023/06/18 06:37:50;;;;;;;15.40;12.60;;;;;;;20.28;69.00;100711.53;4997832;28;20721;-84
2023/06/18 06:40:17;;;;;;;14.20;12.60;;;;;;;20.46;68.55;100715.09;4995810;28;20715;-83
2023/06/18 06:42:43;;;;;;;13.90;12.50;;;;;;;20.64;68.11;100713.16;5008722;28;20735;-84
2023/06/18 06:45:12;;;;;;;13.17;11.87;;;;;;;20.87;66.95;100723.44;5003093;28;20235;-83
2023/06/18 06:47:38;;;;;;;16.52;12.13;;;;;;;21.02;66.18;100722.66;5003404;28;20235;-83
2023/06/18 06:50:06;;;;;;;13.13;12.00;;;;;;;21.17;65.37;100724.75;5005691;28;20207;-83
2023/06/18 06:52:32;;;;;;;13.75;12.30;;;;;;;21.35;64.92;100725.53;4994693;28;20208;-83
2023/06/18 06:54:59;;;;;;;15.60;12.32;;;;;;;21.52;64.23;100723.69;5004055;28;20290;-84
2023/06/18 06:57:25;;;;;;;13.63;12.25;;;;;;;21.65;63.04;100724.09;4999600;28;20575;-83
2023/06/18 06:59:52;;;;;;;13.38;12.02;;;;;;;21.79;63.13;100718.00;5004059;28;20234;-83
2023/06/18 07:02:20;;;;;;;13.43;12.13;;;;;;;21.94;62.12;100727.16;5007984;28;20214;-84
2023/06/18 07:04:47;;;;;;;13.52;12.02;;;;;;;22.07;61.66;100727.53;5006537;28;20246;-84
2023/06/18 07:07:14;;;;;;;12.48;11.30;;;;;;;22.23;61.72;100717.69;5002333;28;20238;-84
2023/06/18 07:09:41;;;;;;;12.52;11.32;;;;;;;22.39;61.24;100718.50;4998534;28;20211;-84
2023/06/18 07:12:08;;;;;;;14.15;11.38;;;;;;;22.58;60.84;100711.00;5006024;28;20206;-83
2023/06/18 07:14:35;;;;;;;11.77;10.80;;;;;;;22.72;60.70;100705.75;4999569;28;20234;-84
2023/06/18 07:17:01;;;;;;;12.63;11.43;;;;;;;22.89;59.55;100714.72;5005556;28;20222;-84
2023/06/18 07:19:29;;;;;;;12.25;11.02;;;;;;;23.02;59.08;100715.00;5001698;28;20218;-84
2023/06/18 07:21:56;;;;;;;12.48;11.32;;;;;;;23.15;58.25;100719.84;5006231;28;20909;-84
2023/06/18 07:24:22;;;;;;;12.60;11.35;;;;;;;23.24;57.61;100718.81;5005537;28;20237;-84
2023/06/18 07:26:49;;;;;;;12.25;11.15;;;;;;;23.37;57.37;100718.22;4999725;28;20224;-84
2023/06/18 07:29:15;;;;;;;12.38;11.18;;;;;;;23.48;57.55;100718.66;5003350;28;20211;-83
2023/06/18 07:31:42;;;;;;;17.08;11.02;;;;;;;23.62;56.78;100721.69;5009249;28;20589;-82
2023/06/18 07:34:08;;;;;;;12.95;11.65;;;;;;;23.74;55.79;100721.06;5003512;28;20206;-83
2023/06/18 07:36:36;;;;;;;11.98;10.88;;;;;;;23.86;55.45;100718.75;4998411;28;20211;-83
2023/06/18 07:39:02;;;;;;;12.40;11.20;;;;;;;24.01;55.00;100714.22;5008233;28;20624;-83
2023/06/18 07:41:29;;;;;;;12.95;11.68;;;;;;;24.19;54.27;100719.34;5006894;28;20563;-83
2023/06/18 07:43:58;;;;;;;11.90;10.80;;;;;;;24.32;53.80;100721.50;5009780;28;20701;-83
2023/06/18 07:46:25;;;;;;;12.48;11.27;;;;;;;24.42;53.23;100720.19;5010945;28;20679;-83
2023/06/18 07:48:51;;;;;;;11.50;10.30;;;;;;;24.56;52.81;100723.94;5012267;28;20269;-83
2023/06/18 07:51:18;;;;;;;11.05;9.98;;;;;;;24.72;52.25;100712.06;5008113;28;20241;-83
2023/06/18 07:53:46;;;;;;;12.18;10.88;;;;;;;24.87;52.08;100713.75;5001676;28;20211;-83
2023/06/18 07:56:13;;;;;;;10.30;9.43;;;;;;;25.02;51.89;100708.31;5008682;28;20206;-83
2023/06/18 07:58:39;;;;;;;10.43;9.45;;;;;;;25.16;51.88;100706.59;5009144;28;20234;-83
2023/06/18 08:01:06;;;;;;;10.90;9.80;;;;;;;25.29;51.26;100701.31;5002843;28;20215;-83
2023/06/18 08:03:32;;;;;;;11.88;9.50;;;;;;;25.37;50.51;100698.47;5010590;28;20369;-84
2023/06/18 08:05:59;;;;;;;11.45;10.23;;;;;;;25.48;50.05;100689.78;5007033;28;20211;-83
2023/06/18 08:08:25;;;;;;;10.43;9.50;;;;;;;25.59;49.75;100688.44;5003989;28;20234;-83
2023/06/18 08:10:53;;;;;;;10.45;9.43;;;;;;;25.72;49.70;100685.03;5005574;28;20213;-83
2023/06/18 08:13:20;;;;;;;10.88;9.85;;;;;;;25.83;49.17;100681.78;5003470;28;20203;-83
2023/06/18 08:15:46;;;;;;;10.30;9.25;;;;;;;25.93;49.46;100680.41;5002828;28;20207;-83
2023/06/18 08:18:13;;;;;;;10.15;9.35;;;;;;;26.07;49.25;100683.25;5013120;28;20717;-84
2023/06/18 08:20:39;;;;;;;10.68;9.65;;;;;;;26.16;49.18;100682.91;5011156;28;20207;-83
2023/06/18 08:23:05;;;;;;;10.70;9.57;;;;;;;26.22;48.72;100681.28;5002304;28;20213;-84
2023/06/18 08:25:32;;;;;;;11.18;9.82;;;;;;;26.28;48.60;100675.88;5002312;28;20224;-84
2023/06/18 08:28:00;;;;;;;10.00;9.00;;;;;;;26.37;48.09;100683.94;5006207;28;20222;-83
2023/06/18 08:30:26;;;;;;;10.85;9.82;;;;;;;26.47;47.95;100678.97;5003234;28;20265;-84
2023/06/18 08:32:54;;;;;;;9.32;8.45;;;;;;;26.59;47.84;100682.84;5006910;28;20223;-84
2023/06/18 08:35:21;;;;;;;9.48;8.40;;;;;;;26.67;47.07;100687.31;5008162;28;20310;-84
2023/06/18 08:37:47;;;;;;;10.48;9.18;;;;;;;26.73;46.95;100679.13;5002536;28;20230;-84
2023/06/18 08:40:15;;;;;;;9.77;8.88;;;;;;;26.81;46.69;100675.41;5004087;28;20704;-84
2023/06/18 08:42:42;;;;;;;9.45;8.55;;;;;;;26.88;46.39;100679.84;5004140;28;20214;-83
2023/06/18 08:45:10;;;;;;;9.40;8.45;;;;;;;26.97;46.40;100680.56;4995730;28;20231;-84
2023/06/18 08:47:40;;;;;;;9.07;8.25;;;;;;;27.04;45.73;100677.88;5005308;28;20747;-84
2023/06/18 08:50:09;;;;;;;9.30;8.38;;;;;;;27.13;45.54;100673.91;5003890;28;20687;-84
2023/06/18 08:52:37;;;;;;;8.45;7.75;;;;;;;27.19;45.02;100673.09;5010987;28;20206;-83
2023/06/18 08:55:09;;;;;;;8.82;8.02;;;;;;;27.28;44.95;100674.56;4998944;28;20581;-84
2023/06/18 08:57:40;;;;;;;8.48;7.78;;;;;;;27.33;44.00;100669.34;5006035;28;20677;-83
2023/06/18 09:00:10;;;;;;;9.10;8.40;;;;;;;27.39;43.77;100674.00;5015690;28;20203;-86
2023/06/18 09:02:37;;;;;;;8.52;7.82;;;;;;;27.39;43.28;100668.53;5010116;28;20294;-86
2023/06/18 09:05:05;;;;;;;8.95;8.05;;;;;;;27.43;42.66;100668.94;5010979;28;20246;-86
2023/06/18 09:07:32;;;;;;;8.80;8.00;;;;;;;27.49;42.56;100671.69;5013387;28;20222;-85
2023/06/18 09:10:02;;;;;;;8.60;7.72;;;;;;;27.57;43.11;100671.56;5004384;28;20306;-85
2023/06/18 09:12:29;;;;;;;8.18;7.35;;;;;;;27.65;42.95;100660.41;5002926;28;20215;-85
2023/06/18 09:14:55;;;;;;;8.35;7.53;;;;;;;27.70;42.20;100670.72;5019417;28;20203;-85
2023/06/18 09:17:24;;;;;;;7.82;7.15;;;;;;;27.77;42.75;100668.81;5009005;28;20772;-85
2023/06/18 09:19:51;;;;;;;7.93;7.32;;;;;;;27.82;42.22;100660.81;5020509;28;20237;-84
2023/06/18 09:22:20;;;;;;;7.95;7.03;;;;;;;27.84;41.77;100666.09;5015667;28;20206;-85
2023/06/18 09:24:47;;;;;;;9.32;7.80;;;;;;;27.84;41.39;100660.63;5008520;28;20666;-83
2023/06/18 09:27:13;;;;;;;7.47;6.78;;;;;;;27.86;40.84;100659.38;5005520;28;20230;-84
2023/06/18 09:29:42;;;;;;;7.68;6.65;;;;;;;27.88;40.00;100660.00;5006670;28;20550;-83
2023/06/18 09:32:10;;;;;;;7.82;7.13;;;;;;;27.96;40.46;100664.41;5001804;28;20211;-83
2023/06/18 09:34:38;;;;;;;8.23;7.50;;;;;;;28.05;39.70;100673.28;5003645;28;20210;-84
2023/06/18 09:37:07;;;;;;;8.65;7.85;;;;;;;28.10;39.96;100665.28;5005053;28;20252;-83
2023/06/18 09:39:35;;;;;;;9.07;8.20;;;;;;;28.13;39.44;100665.66;5005594;28;20681;-82
2023/06/18 09:42:07;;;;;;;9.18;8.27;;;;;;;28.24;39.88;100667.81;5011437;28;20845;-84
2023/06/18 09:44:34;;;;;;;7.75;7.05;;;;;;;28.30;40.38;100660.66;5003668;28;20257;-84
2023/06/18 09:47:03;;;;;;;7.82;7.13;;;;;;;28.41;41.19;100662.75;5000883;28;20728;-83
2023/06/18 09:49:30;;;;;;;8.82;8.13;;;;;;;28.51;41.34;100654.06;5005835;28;20199;-84
2023/06/18 09:51:58;;;;;;;8.57;7.80;;;;;;;28.57;40.49;100661.44;4999705;28;20206;-84
2023/06/18 09:54:38;;;;;;;8.32;7.53;;;;;;;28.58;40.04;100652.16;5004709;28;20273;-84
2023/06/18 09:57:06;;;;;;;8.07;7.38;;;;;;;28.56;39.54;100657.88;5001784;28;20223;-86
2023/06/18 09:59:33;;;;;;;8.40;7.70;;;;;;;28.54;39.25;100653.66;5008010;28;20199;-85
2023/06/18 10:01:59;;;;;;;8.75;8.05;;;;;;;28.53;38.95;100654.69;5001269;28;20213;-85
2023/06/18 10:04:26;;;;;;;8.20;7.45;;;;;;;28.57;38.80;100650.47;5005387;28;20202;-83
2023/06/18 10:06:57;;;;;;;7.97;7.38;;;;;;;28.65;39.26;100650.25;5001852;28;20229;-83
2023/06/18 10:09:32;;;;;;;9.02;8.18;;;;;;;28.70;39.29;100647.69;5011679;28;20198;-82
2023/06/18 10:12:01;;;;;;;8.32;7.63;;;;;;;28.76;38.74;100648.75;5005727;28;20932;-84
2023/06/18 10:14:45;;;;;;;8.88;7.88;;;;;;;28.74;38.13;100645.38;5012610;28;20202;-84
2023/06/18 10:17:23;;;;;;;8.18;7.00;;;;;;;28.78;38.29;100641.16;5031267;22;20270;-72
2023/06/18 10:19:58;;;;;;;8.32;7.53;;;;;;;28.82;37.93;100637.81;5005661;28;20203;-72
2023/06/18 10:22:28;;;;;;;9.38;8.20;;;;;;;28.95;38.72;100636.91;5000503;28;20207;-72
2023/06/18 10:25:02;;;;;;;8.10;7.50;;;;;;;29.09;38.22;100640.41;4983868;28;20399;-72
2023/06/18 10:27:30;;;;;;;8.52;7.68;;;;;;;29.15;37.53;100636.81;4979489;28;20214;-72
2023/06/18 10:29:58;;;;;;;8.23;7.43;;;;;;;29.18;37.93;100633.63;4984501;28;20207;-72
2023/06/18 10:32:26;;;;;;;7.95;7.22;;;;;;;29.24;38.20;100641.81;5008273;22;20251;-71
2023/06/18 10:34:54;;;;;;;7.93;7.13;;;;;;;29.28;38.36;100623.84;4986126;28;20258;-71
2023/06/18 10:37:22;;;;;;;8.00;7.40;;;;;;;29.32;37.36;100633.34;4986815;28;20206;-71
2023/06/18 10:39:48;;;;;;;7.65;7.03;;;;;;;29.35;37.18;100629.31;4982521;28;20218;-71
2023/06/18 10:42:17;;;;;;;8.05;7.28;;;;;;;29.38;36.61;100626.09;4983158;28;20723;-71
2023/06/18 10:44:53;;;;;;;7.65;6.97;;;;;;;29.47;36.35;100624.81;4982730;28;20235;-72
2023/06/18 10:47:22;;;;;;;7.78;6.95;;;;;;;29.57;36.83;100614.19;4984553;28;20199;-71
2023/06/18 10:50:12;;;;;;;8.70;8.00;;;;;;;29.69;35.76;100622.56;4984133;28;20203;-71
2023/06/18 10:52:40;;;;;;;7.80;7.18;;;;;;;29.76;35.88;100619.75;4979588;28;20422;-72
2023/06/18 10:55:07;;;;;;;7.22;6.60;;;;;;;29.82;35.50;100605.13;4981461;28;20203;-72
2023/06/18 10:57:37;;;;;;;8.07;7.30;;;;;;;29.84;35.34;100603.00;4985570;28;20295;-71
2023/06/18 11:00:15;;;;;;;7.03;6.43;;;;;;;29.93;35.42;100598.91;4986633;28;20277;-72
2023/06/18 11:02:42;;;;;;;9.38;6.97;;;;;;;30.00;35.42;100588.75;4982622;28;20231;-71
2023/06/18 11:05:15;;;;;;;7.30;6.60;;;;;;;30.10;35.09;100596.50;4983546;28;20486;-73
2023/06/18 11:07:41;;;;;;;7.32;6.63;;;;;;;30.14;34.90;100604.03;4987389;28;20211;-72
2023/06/18 11:10:09;;;;;;;7.45;6.78;;;;;;;30.17;34.46;100598.09;4988868;28;20204;-71
2023/06/18 11:12:39;;;;;;;8.60;6.97;;;;;;;30.17;33.99;100598.09;4987558;28;20651;-71
2023/06/18 11:15:16;;;;;;;8.05;6.25;;;;;;;30.21;33.48;100598.47;4989432;28;20691;-71
2023/06/18 11:17:44;;;;;;;6.90;6.30;;;;;;;30.20;33.08;100596.78;4987471;28;20218;-71